sensor_id;sensor_type;location;lat;lon;timestamp;pressure;altitude;pressure_sealevel;temperature;humidity
81641;BME280;74020;50.722;-1.944;2023-12-22T00:00:57;101103.98;;;11.21;89.22
81641;BME280;74020;50.722;-1.944;2023-12-22T00:03:22;101090.55;;;11.17;89.33
81641;BME280;74020;50.722;-1.944;2023-12-22T00:05:48;101093.63;;;11.22;89.38
81641;BME280;74020;50.722;-1.944;2023-12-22T00:08:13;101101.67;;;11.38;88.52
81641;BME280;74020;50.722;-1.944;2023-12-22T00:10:38;101096.06;;;11.30;89.00
81641;BME280;74020;50.722;-1.944;2023-12-22T00:13:04;101093.86;;;11.34;89.00
81641;BME280;74020;50.722;-1.944;2023-12-22T00:15:29;101093.54;;;11.34;89.00
81641;BME280;74020;50.722;-1.944;2023-12-22T00:17:55;101084.43;;;11.28;89.63
81641;BME280;74020;50.722;-1.944;2023-12-22T00:20:20;101089.54;;;11.33;89.13
81641;BME280;74020;50.722;-1.944;2023-12-22T00:22:45;101086.34;;;11.30;89.25
81641;BME280;74020;50.722;-1.944;2023-12-22T00:25:11;101089.40;;;11.13;89.81
81641;BME280;74020;50.722;-1.944;2023-12-22T00:27:36;101082.66;;;11.28;89.10
81641;BME280;74020;50.722;-1.944;2023-12-22T00:30:01;101092.82;;;11.35;88.92
81641;BME280;74020;50.722;-1.944;2023-12-22T00:32:27;101082.04;;;11.26;89.21
81641;BME280;74020;50.722;-1.944;2023-12-22T00:34:52;101079.40;;;11.39;88.89
81641;BME280;74020;50.722;-1.944;2023-12-22T00:37:18;101081.34;;;11.43;88.33
81641;BME280;74020;50.722;-1.944;2023-12-22T00:39:43;101087.79;;;11.37;87.60
81641;BME280;74020;50.722;-1.944;2023-12-22T00:42:08;101074.69;;;11.44;86.40
81641;BME280;74020;50.722;-1.944;2023-12-22T00:44:34;101070.08;;;11.61;84.32
81641;BME280;74020;50.722;-1.944;2023-12-22T00:46:59;101064.25;;;11.56;83.25
81641;BME280;74020;50.722;-1.944;2023-12-22T00:49:24;101059.79;;;11.40;83.55
81641;BME280;74020;50.722;-1.944;2023-12-22T00:51:50;101058.54;;;11.52;82.84
81641;BME280;74020;50.722;-1.944;2023-12-22T00:54:15;101063.61;;;11.63;82.18
81641;BME280;74020;50.722;-1.944;2023-12-22T00:56:40;101051.34;;;11.64;81.51
81641;BME280;74020;50.722;-1.944;2023-12-22T00:59:06;101054.80;;;11.59;82.08
81641;BME280;74020;50.722;-1.944;2023-12-22T01:01:31;101050.52;;;11.52;82.57
81641;BME280;74020;50.722;-1.944;2023-12-22T01:03:56;101055.00;;;11.60;81.65
81641;BME280;74020;50.722;-1.944;2023-12-22T01:06:22;101056.64;;;11.74;80.81
81641;BME280;74020;50.722;-1.944;2023-12-22T01:08:47;101056.54;;;11.78;80.32
81641;BME280;74020;50.722;-1.944;2023-12-22T01:11:13;101072.36;;;11.81;80.17
81641;BME280;74020;50.722;-1.944;2023-12-22T01:13:38;101083.20;;;11.86;79.96
81641;BME280;74020;50.722;-1.944;2023-12-22T01:16:03;101077.46;;;11.76;80.47
81641;BME280;74020;50.722;-1.944;2023-12-22T01:18:29;101073.00;;;11.93;79.51
81641;BME280;74020;50.722;-1.944;2023-12-22T01:20:54;101078.83;;;11.81;80.21
81641;BME280;74020;50.722;-1.944;2023-12-22T01:23:19;101086.92;;;11.84;80.23
81641;BME280;74020;50.722;-1.944;2023-12-22T01:25:45;101089.88;;;11.82;80.42
81641;BME280;74020;50.722;-1.944;2023-12-22T01:28:10;101076.80;;;11.88;79.91
81641;BME280;74020;50.722;-1.944;2023-12-22T01:30:35;101081.35;;;12.00;79.49
81641;BME280;74020;50.722;-1.944;2023-12-22T01:33:01;101079.79;;;12.04;79.59
81641;BME280;74020;50.722;-1.944;2023-12-22T01:35:26;101072.98;;;11.94;80.00
81641;BME280;74020;50.722;-1.944;2023-12-22T01:37:51;101066.78;;;12.00;80.17
81641;BME280;74020;50.722;-1.944;2023-12-22T01:40:17;101071.51;;;11.99;80.42
81641;BME280;74020;50.722;-1.944;2023-12-22T01:42:42;101064.62;;;12.10;79.87
81641;BME280;74020;50.722;-1.944;2023-12-22T01:45:08;101074.08;;;12.09;80.47
81641;BME280;74020;50.722;-1.944;2023-12-22T01:47:33;101071.62;;;12.07;80.47
81641;BME280;74020;50.722;-1.944;2023-12-22T01:49:58;101063.45;;;12.09;80.68
81641;BME280;74020;50.722;-1.944;2023-12-22T01:52:24;101068.76;;;11.97;81.29
81641;BME280;74020;50.722;-1.944;2023-12-22T01:54:49;101074.41;;;11.95;81.69
81641;BME280;74020;50.722;-1.944;2023-12-22T01:57:15;101066.42;;;11.69;83.01
81641;BME280;74020;50.722;-1.944;2023-12-22T01:59:39;101072.94;;;11.95;81.65
81641;BME280;74020;50.722;-1.944;2023-12-22T02:02:05;101074.45;;;11.94;82.15
81641;BME280;74020;50.722;-1.944;2023-12-22T02:04:31;101086.05;;;12.08;83.11
81641;BME280;74020;50.722;-1.944;2023-12-22T02:06:57;101081.57;;;12.06;82.86
81641;BME280;74020;50.722;-1.944;2023-12-22T02:09:21;101089.45;;;12.01;82.87
81641;BME280;74020;50.722;-1.944;2023-12-22T02:11:46;101086.65;;;12.05;82.64
81641;BME280;74020;50.722;-1.944;2023-12-22T02:14:11;101083.00;;;11.96;83.04
81641;BME280;74020;50.722;-1.944;2023-12-22T02:16:45;101081.51;;;12.03;83.21
81641;BME280;74020;50.722;-1.944;2023-12-22T02:19:11;101075.37;;;11.90;83.64
81641;BME280;74020;50.722;-1.944;2023-12-22T02:21:27;101076.00;;;11.91;83.48
81641;BME280;74020;50.722;-1.944;2023-12-22T02:23:53;101078.86;;;12.01;82.84
81641;BME280;74020;50.722;-1.944;2023-12-22T02:26:25;101081.91;;;12.15;82.57
81641;BME280;74020;50.722;-1.944;2023-12-22T02:28:45;101083.53;;;11.87;84.11
81641;BME280;74020;50.722;-1.944;2023-12-22T02:31:14;101077.29;;;11.96;84.19
81641;BME280;74020;50.722;-1.944;2023-12-22T02:33:35;101083.76;;;11.85;85.06
81641;BME280;74020;50.722;-1.944;2023-12-22T02:36:03;101092.36;;;11.93;84.79
81641;BME280;74020;50.722;-1.944;2023-12-22T02:38:25;101083.85;;;11.93;85.11
81641;BME280;74020;50.722;-1.944;2023-12-22T02:40:50;101087.91;;;11.89;85.12
81641;BME280;74020;50.722;-1.944;2023-12-22T02:43:16;101090.62;;;11.80;87.93
81641;BME280;74020;50.722;-1.944;2023-12-22T02:45:41;101086.85;;;11.58;90.61
81641;BME280;74020;50.722;-1.944;2023-12-22T02:48:07;101096.27;;;11.67;90.77
81641;BME280;74020;50.722;-1.944;2023-12-22T02:50:32;101096.66;;;11.79;91.40
81641;BME280;74020;50.722;-1.944;2023-12-22T02:52:57;101096.64;;;11.58;92.38
81641;BME280;74020;50.722;-1.944;2023-12-22T02:55:22;101099.78;;;11.57;92.95
81641;BME280;74020;50.722;-1.944;2023-12-22T02:57:48;101087.58;;;11.38;93.75
81641;BME280;74020;50.722;-1.944;2023-12-22T03:00:14;101095.44;;;11.45;93.19
81641;BME280;74020;50.722;-1.944;2023-12-22T03:02:38;101081.38;;;11.54;91.39
81641;BME280;74020;50.722;-1.944;2023-12-22T03:05:05;101089.64;;;11.42;90.77
81641;BME280;74020;50.722;-1.944;2023-12-22T03:07:29;101081.77;;;11.50;89.76
81641;BME280;74020;50.722;-1.944;2023-12-22T03:09:55;101080.71;;;11.47;90.05
81641;BME280;74020;50.722;-1.944;2023-12-22T03:12:20;101072.58;;;11.64;88.53
81641;BME280;74020;50.722;-1.944;2023-12-22T03:14:45;101072.97;;;11.72;87.48
81641;BME280;74020;50.722;-1.944;2023-12-22T03:17:11;101066.71;;;11.67;87.14
81641;BME280;74020;50.722;-1.944;2023-12-22T03:19:36;101072.62;;;11.69;87.10
81641;BME280;74020;50.722;-1.944;2023-12-22T03:22:02;101083.72;;;11.68;87.38
81641;BME280;74020;50.722;-1.944;2023-12-22T03:24:27;101087.40;;;11.82;86.54
81641;BME280;74020;50.722;-1.944;2023-12-22T03:26:52;101070.41;;;11.78;86.97
81641;BME280;74020;50.722;-1.944;2023-12-22T03:29:18;101061.27;;;11.71;87.56
81641;BME280;74020;50.722;-1.944;2023-12-22T03:31:45;101065.30;;;11.69;88.03
81641;BME280;74020;50.722;-1.944;2023-12-22T03:34:08;101067.76;;;11.71;87.99
81641;BME280;74020;50.722;-1.944;2023-12-22T03:36:34;101065.45;;;11.54;88.83
81641;BME280;74020;50.722;-1.944;2023-12-22T03:38:59;101057.87;;;11.55;88.89
81641;BME280;74020;50.722;-1.944;2023-12-22T03:41:24;101059.31;;;11.59;89.03
81641;BME280;74020;50.722;-1.944;2023-12-22T03:43:50;101067.54;;;11.54;89.79
81641;BME280;74020;50.722;-1.944;2023-12-22T03:46:15;101067.76;;;11.53;89.83
81641;BME280;74020;50.722;-1.944;2023-12-22T03:48:40;101061.54;;;11.63;90.11
81641;BME280;74020;50.722;-1.944;2023-12-22T03:51:06;101063.98;;;11.73;89.67
81641;BME280;74020;50.722;-1.944;2023-12-22T03:53:31;101074.40;;;11.58;90.66
81641;BME280;74020;50.722;-1.944;2023-12-22T03:55:56;101069.38;;;11.66;90.51
81641;BME280;74020;50.722;-1.944;2023-12-22T03:58:22;101078.53;;;11.73;90.29
81641;BME280;74020;50.722;-1.944;2023-12-22T04:00:47;101077.56;;;11.70;90.41
81641;BME280;74020;50.722;-1.944;2023-12-22T04:03:12;101081.76;;;11.75;89.90
81641;BME280;74020;50.722;-1.944;2023-12-22T04:05:38;101083.88;;;11.72;90.23
81641;BME280;74020;50.722;-1.944;2023-12-22T04:08:04;101078.81;;;11.61;90.67
81641;BME280;74020;50.722;-1.944;2023-12-22T04:10:28;101080.66;;;11.60;90.77
81641;BME280;74020;50.722;-1.944;2023-12-22T04:12:54;101083.27;;;11.49;91.87
81641;BME280;74020;50.722;-1.944;2023-12-22T04:15:19;101092.67;;;11.65;91.46
81641;BME280;74020;50.722;-1.944;2023-12-22T04:17:44;101085.48;;;11.62;91.97
81641;BME280;74020;50.722;-1.944;2023-12-22T04:20:10;101078.84;;;11.56;92.49
81641;BME280;74020;50.722;-1.944;2023-12-22T04:22:35;101073.06;;;11.56;92.95
81641;BME280;74020;50.722;-1.944;2023-12-22T04:25:00;101069.79;;;11.60;92.58
81641;BME280;74020;50.722;-1.944;2023-12-22T04:27:26;101070.22;;;11.54;93.08
81641;BME280;74020;50.722;-1.944;2023-12-22T04:29:51;101066.77;;;11.50;92.96
81641;BME280;74020;50.722;-1.944;2023-12-22T04:32:16;101063.80;;;11.74;92.12
81641;BME280;74020;50.722;-1.944;2023-12-22T04:34:42;101073.09;;;11.78;91.41
81641;BME280;74020;50.722;-1.944;2023-12-22T04:37:07;101083.47;;;11.67;92.30
81641;BME280;74020;50.722;-1.944;2023-12-22T04:39:32;101074.07;;;11.72;91.05
81641;BME280;74020;50.722;-1.944;2023-12-22T04:41:58;101075.57;;;11.80;89.71
81641;BME280;74020;50.722;-1.944;2023-12-22T04:44:23;101065.66;;;11.89;88.71
81641;BME280;74020;50.722;-1.944;2023-12-22T04:46:49;101060.59;;;11.91;86.46
81641;BME280;74020;50.722;-1.944;2023-12-22T04:49:15;101057.84;;;11.81;87.54
81641;BME280;74020;50.722;-1.944;2023-12-22T04:51:39;101061.08;;;11.82;86.99
81641;BME280;74020;50.722;-1.944;2023-12-22T04:54:04;101051.32;;;11.60;87.45
81641;BME280;74020;50.722;-1.944;2023-12-22T04:56:30;101057.86;;;11.89;85.49
81641;BME280;74020;50.722;-1.944;2023-12-22T04:58:55;101064.42;;;11.83;85.41
81641;BME280;74020;50.722;-1.944;2023-12-22T05:01:21;101063.63;;;11.93;84.83
81641;BME280;74020;50.722;-1.944;2023-12-22T05:03:46;101056.66;;;12.05;83.86
81641;BME280;74020;50.722;-1.944;2023-12-22T05:06:11;101057.56;;;12.05;83.63
81641;BME280;74020;50.722;-1.944;2023-12-22T05:08:36;101045.92;;;12.01;82.90
81641;BME280;74020;50.722;-1.944;2023-12-22T05:11:02;101049.27;;;11.94;83.40
81641;BME280;74020;50.722;-1.944;2023-12-22T05:13:27;101056.11;;;12.09;82.88
81641;BME280;74020;50.722;-1.944;2023-12-22T05:15:53;101049.86;;;12.00;83.18
81641;BME280;74020;50.722;-1.944;2023-12-22T05:18:18;101047.80;;;12.03;83.25
81641;BME280;74020;50.722;-1.944;2023-12-22T05:20:43;101044.33;;;12.11;83.32
81641;BME280;74020;50.722;-1.944;2023-12-22T05:23:09;101043.49;;;12.07;84.13
81641;BME280;74020;50.722;-1.944;2023-12-22T05:25:34;101057.78;;;11.96;84.78
81641;BME280;74020;50.722;-1.944;2023-12-22T05:27:59;101060.07;;;11.68;86.38
81641;BME280;74020;50.722;-1.944;2023-12-22T05:30:25;101060.28;;;11.83;85.62
81641;BME280;74020;50.722;-1.944;2023-12-22T05:32:55;101077.97;;;11.86;86.13
81641;BME280;74020;50.722;-1.944;2023-12-22T05:35:15;101063.81;;;11.82;86.63
81641;BME280;74020;50.722;-1.944;2023-12-22T05:37:41;101064.86;;;11.73;86.96
81641;BME280;74020;50.722;-1.944;2023-12-22T05:40:07;101059.15;;;11.77;86.50
81641;BME280;74020;50.722;-1.944;2023-12-22T05:42:37;101051.20;;;11.70;87.01
81641;BME280;74020;50.722;-1.944;2023-12-22T05:44:57;101049.73;;;11.75;86.67
81641;BME280;74020;50.722;-1.944;2023-12-22T05:47:22;101046.69;;;11.78;86.41
81641;BME280;74020;50.722;-1.944;2023-12-22T05:49:47;101042.34;;;11.79;85.87
81641;BME280;74020;50.722;-1.944;2023-12-22T05:52:13;101062.20;;;11.86;84.70
81641;BME280;74020;50.722;-1.944;2023-12-22T05:54:38;101053.46;;;11.90;84.21
81641;BME280;74020;50.722;-1.944;2023-12-22T05:57:04;101051.22;;;11.89;83.79
81641;BME280;74020;50.722;-1.944;2023-12-22T05:59:29;101036.85;;;11.76;84.20
81641;BME280;74020;50.722;-1.944;2023-12-22T06:01:54;101044.54;;;11.88;82.82
81641;BME280;74020;50.722;-1.944;2023-12-22T06:04:19;101052.09;;;11.91;82.22
81641;BME280;74020;50.722;-1.944;2023-12-22T06:06:45;101063.02;;;11.95;81.69
81641;BME280;74020;50.722;-1.944;2023-12-22T06:09:10;101054.95;;;11.98;80.87
81641;BME280;74020;50.722;-1.944;2023-12-22T06:11:35;101055.31;;;11.92;79.91
81641;BME280;74020;50.722;-1.944;2023-12-22T06:14:01;101084.34;;;11.99;78.80
81641;BME280;74020;50.722;-1.944;2023-12-22T06:16:26;101058.67;;;11.94;79.22
81641;BME280;74020;50.722;-1.944;2023-12-22T06:18:51;101037.79;;;11.84;80.48
81641;BME280;74020;50.722;-1.944;2023-12-22T06:21:18;101036.50;;;11.86;80.80
81641;BME280;74020;50.722;-1.944;2023-12-22T06:23:42;101030.70;;;11.90;80.49
81641;BME280;74020;50.722;-1.944;2023-12-22T06:26:09;101034.63;;;11.92;80.33
81641;BME280;74020;50.722;-1.944;2023-12-22T06:28:33;101035.06;;;11.95;80.05
81641;BME280;74020;50.722;-1.944;2023-12-22T06:30:58;101026.47;;;11.89;80.34
81641;BME280;74020;50.722;-1.944;2023-12-22T06:33:24;101031.60;;;11.76;80.43
81641;BME280;74020;50.722;-1.944;2023-12-22T06:35:49;101041.06;;;11.84;80.22
81641;BME280;74020;50.722;-1.944;2023-12-22T06:38:14;101047.39;;;11.87;79.60
81641;BME280;74020;50.722;-1.944;2023-12-22T06:40:40;101043.29;;;11.84;79.41
81641;BME280;74020;50.722;-1.944;2023-12-22T06:43:05;101046.70;;;11.70;79.97
81641;BME280;74020;50.722;-1.944;2023-12-22T06:45:30;101035.86;;;11.66;80.16
81641;BME280;74020;50.722;-1.944;2023-12-22T06:47:56;101041.06;;;11.78;79.77
81641;BME280;74020;50.722;-1.944;2023-12-22T06:50:21;101042.12;;;11.70;80.00
81641;BME280;74020;50.722;-1.944;2023-12-22T06:52:47;101038.20;;;11.72;79.17
81641;BME280;74020;50.722;-1.944;2023-12-22T06:55:12;101026.60;;;11.70;78.72
81641;BME280;74020;50.722;-1.944;2023-12-22T06:57:37;101035.66;;;11.77;78.27
81641;BME280;74020;50.722;-1.944;2023-12-22T07:00:04;101041.71;;;11.76;77.92
81641;BME280;74020;50.722;-1.944;2023-12-22T07:02:28;101030.87;;;11.76;78.02
81641;BME280;74020;50.722;-1.944;2023-12-22T07:05:01;101030.36;;;11.70;78.01
81641;BME280;74020;50.722;-1.944;2023-12-22T07:07:19;101023.15;;;11.68;77.93
81641;BME280;74020;50.722;-1.944;2023-12-22T07:09:44;101032.38;;;11.62;78.27
81641;BME280;74020;50.722;-1.944;2023-12-22T07:12:09;101036.03;;;11.60;77.85
81641;BME280;74020;50.722;-1.944;2023-12-22T07:14:34;101047.73;;;11.66;77.24
81641;BME280;74020;50.722;-1.944;2023-12-22T07:17:00;101063.54;;;11.56;77.57
81641;BME280;74020;50.722;-1.944;2023-12-22T07:19:25;101053.89;;;11.57;76.90
81641;BME280;74020;50.722;-1.944;2023-12-22T07:21:51;101057.64;;;11.58;77.08
81641;BME280;74020;50.722;-1.944;2023-12-22T07:24:16;101104.25;;;11.59;77.07
81641;BME280;74020;50.722;-1.944;2023-12-22T07:26:41;101067.37;;;11.52;76.83
81641;BME280;74020;50.722;-1.944;2023-12-22T07:29:07;101075.75;;;11.54;76.69
81641;BME280;74020;50.722;-1.944;2023-12-22T07:31:32;101088.03;;;11.56;76.09
81641;BME280;74020;50.722;-1.944;2023-12-22T07:33:57;101098.38;;;11.47;76.36
81641;BME280;74020;50.722;-1.944;2023-12-22T07:36:23;101079.35;;;11.51;75.80
81641;BME280;74020;50.722;-1.944;2023-12-22T07:38:48;101083.59;;;11.52;75.60
81641;BME280;74020;50.722;-1.944;2023-12-22T07:41:14;101104.79;;;11.49;75.60
81641;BME280;74020;50.722;-1.944;2023-12-22T07:43:39;101093.35;;;11.46;75.24
81641;BME280;74020;50.722;-1.944;2023-12-22T07:46:04;101101.64;;;11.44;74.93
81641;BME280;74020;50.722;-1.944;2023-12-22T07:48:30;101115.66;;;11.43;74.93
81641;BME280;74020;50.722;-1.944;2023-12-22T07:50:55;101113.93;;;11.45;74.62
81641;BME280;74020;50.722;-1.944;2023-12-22T07:53:21;101109.74;;;11.41;74.28
81641;BME280;74020;50.722;-1.944;2023-12-22T07:55:46;101096.64;;;11.30;74.46
81641;BME280;74020;50.722;-1.944;2023-12-22T07:58:11;101110.05;;;11.38;74.09
81641;BME280;74020;50.722;-1.944;2023-12-22T08:00:37;101094.41;;;11.29;74.23
81641;BME280;74020;50.722;-1.944;2023-12-22T08:03:02;101104.31;;;11.26;74.29
81641;BME280;74020;50.722;-1.944;2023-12-22T08:05:27;101098.33;;;11.26;74.28
81641;BME280;74020;50.722;-1.944;2023-12-22T08:07:53;101125.39;;;11.20;74.24
81641;BME280;74020;50.722;-1.944;2023-12-22T08:10:18;101106.96;;;11.23;74.15
81641;BME280;74020;50.722;-1.944;2023-12-22T08:12:43;101123.63;;;11.17;74.43
81641;BME280;74020;50.722;-1.944;2023-12-22T08:15:09;101121.27;;;11.25;74.26
81641;BME280;74020;50.722;-1.944;2023-12-22T08:17:34;101131.69;;;11.23;74.43
81641;BME280;74020;50.722;-1.944;2023-12-22T08:19:59;101130.27;;;11.27;73.82
81641;BME280;74020;50.722;-1.944;2023-12-22T08:22:25;101120.78;;;11.23;74.20
81641;BME280;74020;50.722;-1.944;2023-12-22T08:24:50;101124.97;;;11.33;73.82
81641;BME280;74020;50.722;-1.944;2023-12-22T08:27:16;101132.48;;;11.20;74.29
81641;BME280;74020;50.722;-1.944;2023-12-22T08:29:41;101125.60;;;11.32;74.00
81641;BME280;74020;50.722;-1.944;2023-12-22T08:32:06;101124.88;;;11.40;73.38
81641;BME280;74020;50.722;-1.944;2023-12-22T08:34:32;101131.21;;;11.29;74.29
81641;BME280;74020;50.722;-1.944;2023-12-22T08:36:57;101146.21;;;11.34;73.69
81641;BME280;74020;50.722;-1.944;2023-12-22T08:39:23;101145.58;;;11.44;73.52
81641;BME280;74020;50.722;-1.944;2023-12-22T08:41:48;101149.48;;;11.28;74.29
81641;BME280;74020;50.722;-1.944;2023-12-22T08:44:13;101150.38;;;11.36;74.05
81641;BME280;74020;50.722;-1.944;2023-12-22T08:46:39;101167.82;;;11.44;73.87
81641;BME280;74020;50.722;-1.944;2023-12-22T08:49:04;101154.50;;;11.46;73.86
81641;BME280;74020;50.722;-1.944;2023-12-22T08:51:29;101172.37;;;11.49;73.35
81641;BME280;74020;50.722;-1.944;2023-12-22T08:53:55;101173.06;;;11.46;73.83
81641;BME280;74020;50.722;-1.944;2023-12-22T08:56:20;101181.20;;;11.40;74.00
81641;BME280;74020;50.722;-1.944;2023-12-22T08:58:45;101169.02;;;11.56;73.09
81641;BME280;74020;50.722;-1.944;2023-12-22T09:01:14;101174.01;;;11.56;72.70
81641;BME280;74020;50.722;-1.944;2023-12-22T09:03:36;101172.40;;;11.56;72.80
81641;BME280;74020;50.722;-1.944;2023-12-22T09:06:03;101171.11;;;11.54;72.64
81641;BME280;74020;50.722;-1.944;2023-12-22T09:08:27;101155.89;;;11.47;73.06
81641;BME280;74020;50.722;-1.944;2023-12-22T09:10:53;101169.75;;;11.53;72.94
81641;BME280;74020;50.722;-1.944;2023-12-22T09:13:18;101177.14;;;11.59;72.32
81641;BME280;74020;50.722;-1.944;2023-12-22T09:15:43;101167.78;;;11.67;72.08
81641;BME280;74020;50.722;-1.944;2023-12-22T09:18:08;101189.93;;;11.64;72.19
81641;BME280;74020;50.722;-1.944;2023-12-22T09:20:33;101185.47;;;11.68;71.75
81641;BME280;74020;50.722;-1.944;2023-12-22T09:22:59;101180.29;;;11.59;72.12
81641;BME280;74020;50.722;-1.944;2023-12-22T09:25:24;101194.41;;;11.68;72.00
81641;BME280;74020;50.722;-1.944;2023-12-22T09:27:49;101189.35;;;11.60;71.76
81641;BME280;74020;50.722;-1.944;2023-12-22T09:30:15;101187.43;;;11.70;70.87
81641;BME280;74020;50.722;-1.944;2023-12-22T09:32:40;101190.32;;;11.70;71.09
81641;BME280;74020;50.722;-1.944;2023-12-22T09:35:06;101196.45;;;11.72;71.28
81641;BME280;74020;50.722;-1.944;2023-12-22T09:37:31;101198.74;;;11.66;71.65
81641;BME280;74020;50.722;-1.944;2023-12-22T09:39:56;101204.79;;;11.55;71.90
81641;BME280;74020;50.722;-1.944;2023-12-22T09:42:21;101210.44;;;11.57;72.24
81641;BME280;74020;50.722;-1.944;2023-12-22T09:44:49;101202.97;;;11.66;71.78
81641;BME280;74020;50.722;-1.944;2023-12-22T09:47:13;101202.81;;;11.57;72.54
81641;BME280;74020;50.722;-1.944;2023-12-22T09:49:39;101205.24;;;11.69;71.36
81641;BME280;74020;50.722;-1.944;2023-12-22T09:52:04;101201.78;;;11.70;71.10
81641;BME280;74020;50.722;-1.944;2023-12-22T09:54:29;101200.19;;;11.71;70.79
81641;BME280;74020;50.722;-1.944;2023-12-22T09:56:54;101221.07;;;11.47;71.67
81641;BME280;74020;50.722;-1.944;2023-12-22T09:59:19;101214.84;;;11.58;71.06
81641;BME280;74020;50.722;-1.944;2023-12-22T10:01:45;101200.71;;;11.60;70.79
81641;BME280;74020;50.722;-1.944;2023-12-22T10:04:10;101214.48;;;11.63;70.68
81641;BME280;74020;50.722;-1.944;2023-12-22T10:06:35;101196.47;;;11.61;70.09
81641;BME280;74020;50.722;-1.944;2023-12-22T10:09:01;101199.47;;;11.59;69.54
81641;BME280;74020;50.722;-1.944;2023-12-22T10:11:27;101214.05;;;11.65;69.87
81641;BME280;74020;50.722;-1.944;2023-12-22T10:13:52;101201.77;;;11.58;70.33
81641;BME280;74020;50.722;-1.944;2023-12-22T10:16:17;101217.15;;;11.62;69.06
81641;BME280;74020;50.722;-1.944;2023-12-22T10:18:42;101232.21;;;11.69;68.41
81641;BME280;74020;50.722;-1.944;2023-12-22T10:21:07;101217.54;;;11.71;69.18
81641;BME280;74020;50.722;-1.944;2023-12-22T10:23:33;101240.22;;;11.70;69.04
81641;BME280;74020;50.722;-1.944;2023-12-22T10:25:58;101225.21;;;11.59;68.94
81641;BME280;74020;50.722;-1.944;2023-12-22T10:28:23;101223.14;;;11.69;69.01
81641;BME280;74020;50.722;-1.944;2023-12-22T10:30:49;101219.28;;;11.72;68.25
81641;BME280;74020;50.722;-1.944;2023-12-22T10:33:14;101209.56;;;11.66;68.08
81641;BME280;74020;50.722;-1.944;2023-12-22T10:35:41;101220.84;;;11.67;68.15
81641;BME280;74020;50.722;-1.944;2023-12-22T10:38:05;101224.44;;;11.69;68.01
81641;BME280;74020;50.722;-1.944;2023-12-22T10:40:30;101212.47;;;11.70;66.72
81641;BME280;74020;50.722;-1.944;2023-12-22T10:42:55;101220.01;;;11.67;66.43
81641;BME280;74020;50.722;-1.944;2023-12-22T10:45:22;101243.63;;;11.73;66.47
81641;BME280;74020;50.722;-1.944;2023-12-22T10:47:48;101258.19;;;11.78;66.94
81641;BME280;74020;50.722;-1.944;2023-12-22T10:50:12;101230.95;;;11.73;67.60
81641;BME280;74020;50.722;-1.944;2023-12-22T10:52:37;101230.27;;;11.81;67.99
81641;BME280;74020;50.722;-1.944;2023-12-22T10:55:02;101241.43;;;11.82;67.65
81641;BME280;74020;50.722;-1.944;2023-12-22T10:57:27;101236.93;;;11.91;67.24
81641;BME280;74020;50.722;-1.944;2023-12-22T10:59:53;101259.31;;;11.87;67.74
81641;BME280;74020;50.722;-1.944;2023-12-22T11:02:19;101242.70;;;11.84;67.67
81641;BME280;74020;50.722;-1.944;2023-12-22T11:04:57;101252.33;;;11.87;67.78
81641;BME280;74020;50.722;-1.944;2023-12-22T11:07:09;101251.84;;;11.78;67.93
81641;BME280;74020;50.722;-1.944;2023-12-22T11:09:35;101276.32;;;11.87;67.48
81641;BME280;74020;50.722;-1.944;2023-12-22T11:12:01;101243.37;;;11.73;67.72
81641;BME280;74020;50.722;-1.944;2023-12-22T11:14:26;101232.83;;;11.84;67.98
81641;BME280;74020;50.722;-1.944;2023-12-22T11:16:51;101249.24;;;11.89;68.36
81641;BME280;74020;50.722;-1.944;2023-12-22T11:19:15;101237.64;;;11.89;68.48
81641;BME280;74020;50.722;-1.944;2023-12-22T11:21:41;101246.02;;;12.00;67.74
81641;BME280;74020;50.722;-1.944;2023-12-22T11:24:07;101225.44;;;11.86;68.15
81641;BME280;74020;50.722;-1.944;2023-12-22T11:26:32;101246.71;;;11.81;67.83
81641;BME280;74020;50.722;-1.944;2023-12-22T11:28:58;101243.44;;;11.88;67.76
81641;BME280;74020;50.722;-1.944;2023-12-22T11:31:23;101246.74;;;11.85;67.59
81641;BME280;74020;50.722;-1.944;2023-12-22T11:33:48;101242.70;;;11.88;67.87
81641;BME280;74020;50.722;-1.944;2023-12-22T11:36:14;101260.45;;;11.87;68.12
81641;BME280;74020;50.722;-1.944;2023-12-22T11:38:39;101242.25;;;11.95;67.77
81641;BME280;74020;50.722;-1.944;2023-12-22T11:41:04;101248.92;;;11.97;67.59
81641;BME280;74020;50.722;-1.944;2023-12-22T11:43:30;101280.91;;;11.91;67.45
81641;BME280;74020;50.722;-1.944;2023-12-22T11:45:54;101252.83;;;11.84;67.26
81641;BME280;74020;50.722;-1.944;2023-12-22T11:48:20;101245.41;;;11.89;67.80
81641;BME280;74020;50.722;-1.944;2023-12-22T11:50:45;101246.03;;;11.91;67.56
81641;BME280;74020;50.722;-1.944;2023-12-22T11:53:20;101241.49;;;11.88;67.19
81641;BME280;74020;50.722;-1.944;2023-12-22T12:00:38;101220.90;;;12.01;65.89
81641;BME280;74020;50.722;-1.944;2023-12-22T12:02:54;101222.90;;;11.96;65.38
81641;BME280;74020;50.722;-1.944;2023-12-22T12:05:17;101228.99;;;12.04;65.23
81641;BME280;74020;50.722;-1.944;2023-12-22T12:07:44;101232.57;;;11.94;65.52
81641;BME280;74020;50.722;-1.944;2023-12-22T12:10:08;101236.84;;;11.80;66.35
81641;BME280;74020;50.722;-1.944;2023-12-22T12:12:33;101244.39;;;11.93;66.16
81641;BME280;74020;50.722;-1.944;2023-12-22T12:15:08;101236.42;;;12.04;64.62
81641;BME280;74020;50.722;-1.944;2023-12-22T12:17:24;101221.54;;;11.80;66.32
81641;BME280;74020;50.722;-1.944;2023-12-22T12:19:51;101218.72;;;11.96;65.64
81641;BME280;74020;50.722;-1.944;2023-12-22T12:22:15;101216.71;;;11.89;66.18
81641;BME280;74020;50.722;-1.944;2023-12-22T12:24:41;101224.22;;;12.06;65.56
81641;BME280;74020;50.722;-1.944;2023-12-22T12:27:06;101223.62;;;12.02;65.52
81641;BME280;74020;50.722;-1.944;2023-12-22T12:29:32;101223.55;;;12.00;66.09
81641;BME280;74020;50.722;-1.944;2023-12-22T12:32:02;101219.02;;;12.05;65.87
81641;BME280;74020;50.722;-1.944;2023-12-22T12:34:23;101208.69;;;11.92;66.03